Mediapolis, Iowa
Current Conditions -  °F | °C
As of 1:53 AM on Saturday 01 Nov 2014 (Local Time) from KBRL Reporting Station
Clear Clear  
Wind Chill: 22°   Ceiling: Unl
Heat Index: 28°   Visibility: 10mi
Dew Point: 21°   Wind: 6mph
Humidity: 75%   Direction: 350°N
Pressure: 30.45"   Gusts: NA
Location:  41.01°N, 91.16°W
Report Text: KBRL 010653Z AUTO 35005KT 10SM CLR M02/M06 A3045 RMK AO2 SLP319 T10221061
Loading
Personal Weather Stations






























Interactive Weather Map
Tropical Storm Tracking
New forecast layout! Learn more

10-Day Weather Forecast

Advertisements
Track Severe Weather on mobile